JBU963 KFLL-SKRG
Flight info
| Callsign | JBU963 |
|---|---|
| Flight time | N/A |
| Altitude | 35000 |
| Route | REGAE2 URSUS UP406 HANCK/N0455F370 UP406 AKPEK AKPEK4C |
| Aircraft | A320/M-SDE3FGHIRWY/LB1 |
Departure
| Time | N/A |
|---|---|
| Airport | Fort Lauderdale Hollywood International Airport (KFLL) |
Arrival
| Time | 2026-04-26 20:46 |
|---|---|
| Airport | Jose Maria Córdova International Airport (SKRG) |
| Time | Latitude | Longitude | Altitude | Speed | Heading |
|---|---|---|---|---|---|
| 2026-04-26 20:27 | 7.00250 | -75.64479 | 34984 ft | 448 kts | 169° |
| 2026-04-26 20:27 | 6.97801 | -75.64100 | 35122 ft | 447 kts | 171° |
| 2026-04-26 20:28 | 6.94723 | -75.63598 | 34662 ft | 449 kts | 169° |
| 2026-04-26 20:28 | 6.91646 | -75.63060 | 34034 ft | 448 kts | 169° |
| 2026-04-26 20:28 | 6.88544 | -75.62497 | 33400 ft | 446 kts | 168° |
| 2026-04-26 20:28 | 6.85498 | -75.61941 | 32774 ft | 444 kts | 168° |
| 2026-04-26 20:29 | 6.83486 | -75.61576 | 32357 ft | 444 kts | 169° |
| 2026-04-26 20:29 | 6.79429 | -75.60854 | 31523 ft | 442 kts | 169° |
| 2026-04-26 20:29 | 6.76402 | -75.60333 | 30896 ft | 441 kts | 169° |
| 2026-04-26 20:29 | 6.73380 | -75.59823 | 30268 ft | 439 kts | 169° |
| 2026-04-26 20:30 | 6.71388 | -75.59490 | 29854 ft | 438 kts | 169° |
| 2026-04-26 20:30 | 6.68381 | -75.58989 | 29229 ft | 437 kts | 169° |
| 2026-04-26 20:30 | 6.65389 | -75.58488 | 28604 ft | 436 kts | 169° |
| 2026-04-26 20:30 | 6.62404 | -75.57983 | 27978 ft | 434 kts | 169° |
| 2026-04-26 20:31 | 6.59429 | -75.57476 | 27351 ft | 433 kts | 169° |
| 2026-04-26 20:31 | 6.56470 | -75.56969 | 26727 ft | 431 kts | 170° |
| 2026-04-26 20:31 | 6.55821 | -75.56858 | 26587 ft | 431 kts | 170° |
| 2026-04-26 20:32 | 6.53108 | -75.56392 | 25967 ft | 430 kts | 170° |
| 2026-04-26 20:32 | 6.50163 | -75.55889 | 25335 ft | 425 kts | 170° |
| 2026-04-26 20:32 | 6.47297 | -75.55404 | 24711 ft | 412 kts | 170° |
| 2026-04-26 20:32 | 6.44508 | -75.54936 | 24085 ft | 401 kts | 170° |
| 2026-04-26 20:33 | 6.41751 | -75.54472 | 23454 ft | 392 kts | 170° |
| 2026-04-26 20:33 | 6.39081 | -75.54124 | 22827 ft | 383 kts | 177° |
| 2026-04-26 20:33 | 6.36452 | -75.54063 | 22216 ft | 373 kts | 179° |
| 2026-04-26 20:33 | 6.33898 | -75.54018 | 21748 ft | 361 kts | 179° |
| 2026-04-26 20:34 | 6.31429 | -75.53974 | 21298 ft | 349 kts | 179° |
| 2026-04-26 20:34 | 6.29039 | -75.53932 | 20849 ft | 339 kts | 179° |
| 2026-04-26 20:34 | 6.26712 | -75.53891 | 20399 ft | 330 kts | 179° |
| 2026-04-26 20:34 | 6.24449 | -75.53852 | 19948 ft | 322 kts | 179° |
| 2026-04-26 20:35 | 6.22234 | -75.53813 | 19497 ft | 314 kts | 179° |
| 2026-04-26 20:35 | 6.20069 | -75.53774 | 19045 ft | 307 kts | 179° |
| 2026-04-26 20:35 | 6.17954 | -75.53736 | 18595 ft | 301 kts | 179° |
| 2026-04-26 20:35 | 6.15866 | -75.53697 | 18149 ft | 302 kts | 179° |
| 2026-04-26 20:36 | 6.13755 | -75.53657 | 17701 ft | 306 kts | 179° |
| 2026-04-26 20:36 | 6.11611 | -75.53623 | 17248 ft | 309 kts | 180° |
| 2026-04-26 20:36 | 6.09454 | -75.53626 | 16869 ft | 309 kts | 181° |
| 2026-04-26 20:36 | 6.07307 | -75.53653 | 16550 ft | 308 kts | 181° |
| 2026-04-26 20:37 | 6.05183 | -75.53688 | 16215 ft | 301 kts | 181° |
| 2026-04-26 20:37 | 6.03129 | -75.53718 | 15887 ft | 290 kts | 181° |
| 2026-04-26 20:37 | 6.01152 | -75.53742 | 15560 ft | 279 kts | 181° |
| 2026-04-26 20:37 | 5.99236 | -75.53761 | 15234 ft | 271 kts | 181° |
| 2026-04-26 20:38 | 5.97358 | -75.53778 | 14908 ft | 269 kts | 181° |
| 2026-04-26 20:38 | 5.95491 | -75.53793 | 14582 ft | 268 kts | 181° |
| 2026-04-26 20:38 | 5.93635 | -75.53809 | 14265 ft | 266 kts | 181° |
| 2026-04-26 20:38 | 5.91782 | -75.53826 | 13940 ft | 268 kts | 181° |
| 2026-04-26 20:39 | 5.89945 | -75.53609 | 13668 ft | 265 kts | 159° |
| 2026-04-26 20:39 | 5.88436 | -75.52602 | 13418 ft | 262 kts | 130° |
| 2026-04-26 20:39 | 5.87594 | -75.51010 | 13164 ft | 259 kts | 102° |
| 2026-04-26 20:39 | 5.87487 | -75.49222 | 12915 ft | 256 kts | 90° |
| 2026-04-26 20:40 | 5.87503 | -75.47440 | 12664 ft | 254 kts | 90° |
| 2026-04-26 20:40 | 5.87518 | -75.45674 | 12412 ft | 252 kts | 90° |
| 2026-04-26 20:40 | 5.87739 | -75.43931 | 12158 ft | 249 kts | 65° |
| 2026-04-26 20:40 | 5.88801 | -75.42647 | 11911 ft | 243 kts | 30° |
| 2026-04-26 20:41 | 5.90413 | -75.42225 | 11655 ft | 237 kts | 354° |
| 2026-04-26 20:41 | 5.92013 | -75.42425 | 11388 ft | 234 kts | 359° |
| 2026-04-26 20:41 | 5.93645 | -75.42246 | 11092 ft | 233 kts | 5° |
| 2026-04-26 20:41 | 5.95267 | -75.42171 | 10783 ft | 233 kts | 0° |
| 2026-04-26 20:42 | 5.96889 | -75.42179 | 10482 ft | 233 kts | 359° |
| 2026-04-26 20:42 | 5.98504 | -75.42194 | 10200 ft | 230 kts | 359° |
| 2026-04-26 20:42 | 6.00086 | -75.42206 | 9858 ft | 223 kts | 359° |
| 2026-04-26 20:42 | 6.01602 | -75.42213 | 9508 ft | 213 kts | 360° |
| 2026-04-26 20:43 | 6.03048 | -75.42216 | 9254 ft | 201 kts | 0° |
| 2026-04-26 20:43 | 6.04391 | -75.42218 | 9065 ft | 187 kts | 359° |
| 2026-04-26 20:43 | 6.05635 | -75.42239 | 8787 ft | 174 kts | 359° |
| 2026-04-26 20:43 | 6.06830 | -75.42259 | 8487 ft | 169 kts | 359° |
| 2026-04-26 20:44 | 6.07999 | -75.42259 | 8285 ft | 168 kts | 0° |
| 2026-04-26 20:44 | 6.09153 | -75.42255 | 8120 ft | 164 kts | 0° |
| 2026-04-26 20:44 | 6.10310 | -75.42267 | 7927 ft | 169 kts | 359° |
| 2026-04-26 20:44 | 6.11494 | -75.42279 | 7756 ft | 171 kts | 0° |
| 2026-04-26 20:45 | 6.12687 | -75.42269 | 7510 ft | 171 kts | 0° |
| 2026-04-26 20:45 | 6.13866 | -75.42296 | 7266 ft | 170 kts | 359° |
| 2026-04-26 20:45 | 6.15034 | -75.42298 | 7085 ft | 164 kts | 359° |
| 2026-04-26 20:45 | 6.16068 | -75.42306 | 7047 ft | 126 kts | 359° |
| 2026-04-26 20:46 | 6.16769 | -75.42312 | 7048 ft | 76 kts | 359° |
| 2026-04-26 20:46 | 6.17170 | -75.42317 | 7051 ft | 48 kts | 359° |
| 2026-04-26 20:46 | 6.17424 | -75.42316 | 7054 ft | 22 kts | 360° |
| 2026-04-26 20:46 | 6.17553 | -75.42333 | 7051 ft | 15 kts | 317° |
| 2026-04-26 20:47 | 6.17566 | -75.42432 | 7051 ft | 14 kts | 270° |
| 2026-04-26 20:47 | 6.17551 | -75.42493 | 7048 ft | 13 kts | 239° |
| 2026-04-26 20:47 | 6.17458 | -75.42562 | 7044 ft | 13 kts | 212° |
| 2026-04-26 20:47 | 6.17402 | -75.42597 | 7045 ft | 8 kts | 212° |
| 2026-04-26 20:48 | 6.17356 | -75.42618 | 7045 ft | 8 kts | 194° |
| 2026-04-26 20:48 | 6.17316 | -75.42655 | 7043 ft | 9 kts | 262° |
| 2026-04-26 20:48 | 6.17344 | -75.42714 | 7039 ft | 8 kts | 303° |
| 2026-04-26 20:48 | 6.17378 | -75.42776 | 7034 ft | 10 kts | 290° |
| 2026-04-26 20:49 | 6.17384 | -75.42805 | 7033 ft | 1 kts | 270° |
| 2026-04-26 20:49 | 6.17378 | -75.42806 | 7032 ft | 1 kts | 204° |
| 2026-04-26 20:49 | 6.17374 | -75.42803 | 7033 ft | 1 kts | 163° |
| 2026-04-26 20:49 | 6.17359 | -75.42800 | 7033 ft | 3 kts | 177° |
| 2026-04-26 20:50 | 6.17334 | -75.42805 | 7032 ft | 4 kts | 194° |
| 2026-04-26 20:50 | 6.17317 | -75.42811 | 7032 ft | 2 kts | 198° |
| 2026-04-26 20:50 | 6.17316 | -75.42811 | 7031 ft | 0 kts | 198° |